Time;durP1;ratioP1;P1;durP2;ratioP2;P2;SDS_P1;SDS_P2;PMS_P1;PMS_P2;Temp;Humidity;BMP_temperature;BMP_pressure;BME280_temperature;BME280_humidity;BME280_pressure;Samples;Min_cycle;Max_cycle;Signal;HPM_P1;HPM_P2
2022/07/21 00:01:49;;;;;;;5.97;2.42;;;;;;;;;;3357407;42;20084;-63
2022/07/21 00:04:15;;;;;;;6.35;2.38;;;;;;;;;;3358491;42;20139;-63
2022/07/21 00:06:42;;;;;;;5.70;2.42;;;;;;;;;;3352555;42;20080;-63
2022/07/21 00:09:09;;;;;;;5.55;2.30;;;;;;;;;;3346935;42;20602;-63
2022/07/21 00:11:35;;;;;;;5.37;2.23;;;;;;;;;;3352904;42;20100;-62
2022/07/21 00:14:02;;;;;;;5.55;2.30;;;;;;;;;;3354314;42;20107;-62
2022/07/21 00:16:28;;;;;;;5.18;2.25;;;;;;;;;;3345287;42;20116;-65
2022/07/21 00:18:54;;;;;;;7.68;3.17;;;;;;;;;;3352837;42;20147;-63
2022/07/21 00:21:20;;;;;;;7.45;2.70;;;;;;;;;;3354175;42;20113;-62
2022/07/21 00:23:46;;;;;;;7.60;2.50;;;;;;;;;;3355605;42;20096;-62
2022/07/21 00:26:12;;;;;;;9.48;2.80;;;;;;;;;;3355800;42;20551;-63
2022/07/21 00:28:38;;;;;;;7.85;2.80;;;;;;;;;;3353928;42;20088;-62
2022/07/21 00:31:04;;;;;;;6.38;2.72;;;;;;;;;;3356562;42;20099;-62
2022/07/21 00:33:31;;;;;;;7.40;2.70;;;;;;;;;;3352912;42;20084;-62
2022/07/21 00:35:57;;;;;;;5.90;2.50;;;;;;;;;;3353182;42;20150;-64
2022/07/21 00:38:23;;;;;;;8.23;2.88;;;;;;;;;;3355901;42;20100;-62
2022/07/21 00:40:49;;;;;;;6.15;2.80;;;;;;;;;;3350905;42;20080;-63
2022/07/21 00:43:15;;;;;;;7.25;2.58;;;;;;;;;;3349177;42;20097;-63
2022/07/21 00:45:41;;;;;;;6.07;2.72;;;;;;;;;;3353232;42;20088;-63
2022/07/21 00:48:07;;;;;;;6.93;2.70;;;;;;;;;;3349261;42;20476;-62
2022/07/21 00:50:33;;;;;;;6.30;2.90;;;;;;;;;;3353608;42;20589;-64
2022/07/21 00:52:59;;;;;;;6.68;2.95;;;;;;;;;;3354840;42;20092;-63
2022/07/21 00:55:25;;;;;;;7.07;2.85;;;;;;;;;;3353717;42;20119;-63
2022/07/21 00:57:52;;;;;;;7.20;3.05;;;;;;;;;;3349110;42;20136;-63
2022/07/21 01:00:23;;;;;;;6.70;2.90;;;;;;;;;;3347178;42;20143;-63
2022/07/21 01:02:49;;;;;;;6.18;2.75;;;;;;;;;;3339706;42;20100;-63
2022/07/21 01:05:15;;;;;;;8.80;2.95;;;;;;;;;;3345918;42;20108;-63
2022/07/21 01:07:42;;;;;;;6.32;2.70;;;;;;;;;;3353874;42;20193;-62
2022/07/21 01:10:10;;;;;;;8.00;2.88;;;;;;;;;;3344898;42;20164;-63
2022/07/21 01:12:36;;;;;;;6.90;2.80;;;;;;;;;;3341995;42;20147;-63
2022/07/21 01:15:03;;;;;;;9.07;2.55;;;;;;;;;;3344226;42;20105;-62
2022/07/21 01:17:29;;;;;;;7.50;2.42;;;;;;;;;;3347795;42;20084;-63
2022/07/21 01:19:55;;;;;;;7.68;3.00;;;;;;;;;;3347741;42;20104;-62
2022/07/21 01:22:22;;;;;;;7.68;3.10;;;;;;;;;;3351982;42;20156;-61
2022/07/21 01:24:48;;;;;;;7.10;2.70;;;;;;;;;;3341737;42;20140;-62
2022/07/21 01:27:14;;;;;;;7.13;2.60;;;;;;;;;;3352632;42;20565;-62
2022/07/21 01:29:40;;;;;;;9.30;3.03;;;;;;;;;;3357393;42;20586;-61
2022/07/21 01:32:06;;;;;;;9.02;2.67;;;;;;;;;;3352507;42;20103;-62
2022/07/21 01:34:32;;;;;;;6.10;2.60;;;;;;;;;;3358526;42;20096;-63
2022/07/21 01:36:58;;;;;;;6.03;2.80;;;;;;;;;;3354265;42;20167;-60
2022/07/21 01:42:08;;;;;;;6.15;2.80;;;;;;;;;;3356732;42;20104;-63
2022/07/21 01:44:34;;;;;;;5.90;2.63;;;;;;;;;;3353038;42;20127;-63
2022/07/21 01:47:01;;;;;;;7.03;2.75;;;;;;;;;;3358660;42;20119;-63
2022/07/21 01:49:27;;;;;;;7.13;2.80;;;;;;;;;;3353170;42;20139;-60
2022/07/21 01:51:53;;;;;;;6.65;2.50;;;;;;;;;;3352750;42;20111;-62
2022/07/21 01:54:19;;;;;;;7.72;2.92;;;;;;;;;;3358761;42;20619;-61
2022/07/21 01:56:45;;;;;;;6.15;2.63;;;;;;;;;;3352119;42;20105;-62
2022/07/21 01:59:11;;;;;;;6.85;2.90;;;;;;;;;;3345774;42;20092;-62
2022/07/21 02:01:37;;;;;;;7.47;2.70;;;;;;;;;;3355811;42;20562;-62
2022/07/21 02:04:04;;;;;;;9.25;3.00;;;;;;;;;;3344621;42;20092;-62
2022/07/21 02:06:30;;;;;;;7.07;3.10;;;;;;;;;;3354447;42;20092;-62
2022/07/21 02:08:56;;;;;;;6.78;2.55;;;;;;;;;;3346265;42;20186;-62
2022/07/21 02:11:23;;;;;;;7.57;2.85;;;;;;;;;;3354421;42;20100;-62
2022/07/21 02:13:49;;;;;;;6.30;2.63;;;;;;;;;;3344290;42;20642;-62
2022/07/21 02:16:15;;;;;;;6.72;2.60;;;;;;;;;;3353590;42;20107;-62
2022/07/21 02:18:41;;;;;;;8.52;2.72;;;;;;;;;;3353589;42;20104;-63
2022/07/21 02:21:07;;;;;;;6.68;2.78;;;;;;;;;;3349451;42;20164;-62
2022/07/21 02:23:33;;;;;;;8.10;3.03;;;;;;;;;;3353120;42;20515;-63
2022/07/21 02:25:59;;;;;;;7.20;2.60;;;;;;;;;;3347174;42;20598;-62
2022/07/21 02:28:26;;;;;;;6.25;2.70;;;;;;;;;;3355247;42;20084;-63
2022/07/21 02:30:53;;;;;;;7.93;2.70;;;;;;;;;;3353768;42;20132;-62
2022/07/21 02:33:19;;;;;;;9.88;2.70;;;;;;;;;;3349573;42;20107;-62
2022/07/21 02:35:45;;;;;;;6.00;2.78;;;;;;;;;;3342138;42;20601;-63
2022/07/21 02:38:11;;;;;;;6.40;2.70;;;;;;;;;;3354599;42;20093;-63
2022/07/21 02:40:37;;;;;;;6.70;2.92;;;;;;;;;;3349899;42;20106;-61
2022/07/21 02:43:05;;;;;;;6.70;2.65;;;;;;;;;;3351740;42;20140;-62
2022/07/21 02:45:32;;;;;;;7.20;2.63;;;;;;;;;;3349158;42;20170;-62
2022/07/21 02:48:05;;;;;;;8.32;3.10;;;;;;;;;;3343435;42;20096;-62
2022/07/21 02:50:33;;;;;;;7.17;2.77;;;;;;;;;;3349002;42;20690;-62
2022/07/21 02:53:06;;;;;;;8.52;2.70;;;;;;;;;;3352211;42;20468;-62
2022/07/21 02:55:32;;;;;;;5.97;2.47;;;;;;;;;;3353312;42;20599;-62
2022/07/21 02:58:05;;;;;;;5.90;2.58;;;;;;;;;;3348160;42;20103;-62
2022/07/21 03:00:31;;;;;;;7.32;2.50;;;;;;;;;;3353541;42;20096;-62
2022/07/21 03:02:57;;;;;;;6.63;3.00;;;;;;;;;;3357153;42;20575;-62
2022/07/21 03:05:23;;;;;;;5.30;2.50;;;;;;;;;;3350699;42;20633;-61
2022/07/21 03:07:49;;;;;;;7.50;2.50;;;;;;;;;;3352343;42;20081;-63
2022/07/21 03:10:15;;;;;;;6.55;2.72;;;;;;;;;;3353293;42;20159;-62
2022/07/21 03:12:41;;;;;;;7.13;2.30;;;;;;;;;;3356013;42;20089;-62
2022/07/21 03:15:07;;;;;;;6.07;2.35;;;;;;;;;;3349417;42;20110;-62
2022/07/21 03:17:33;;;;;;;5.90;2.60;;;;;;;;;;3351639;42;20602;-62
2022/07/21 03:19:59;;;;;;;7.23;2.50;;;;;;;;;;3352719;42;20162;-62
2022/07/21 03:22:25;;;;;;;9.43;2.60;;;;;;;;;;3358287;42;20092;-62
2022/07/21 03:24:51;;;;;;;6.82;2.30;;;;;;;;;;3357608;42;20088;-62
2022/07/21 03:27:17;;;;;;;7.03;2.60;;;;;;;;;;3352321;42;20108;-61
2022/07/21 03:29:43;;;;;;;6.00;2.50;;;;;;;;;;3351333;42;20565;-62
2022/07/21 03:32:09;;;;;;;6.60;2.40;;;;;;;;;;3355576;42;20574;-61
2022/07/21 03:34:35;;;;;;;6.43;2.50;;;;;;;;;;3353088;42;20115;-62
2022/07/21 03:37:01;;;;;;;6.57;2.70;;;;;;;;;;3357757;42;20080;-61
2022/07/21 03:39:27;;;;;;;5.93;2.27;;;;;;;;;;3343969;42;20308;-62
2022/07/21 03:41:53;;;;;;;6.90;2.28;;;;;;;;;;3355755;42;20558;-62
2022/07/21 03:44:19;;;;;;;5.78;2.22;;;;;;;;;;3342742;42;20661;-62
2022/07/21 03:46:45;;;;;;;5.53;2.30;;;;;;;;;;3351168;42;20085;-61
2022/07/21 03:49:11;;;;;;;6.63;2.40;;;;;;;;;;3353404;42;20080;-62
2022/07/21 03:51:37;;;;;;;6.10;2.83;;;;;;;;;;3354916;42;20088;-61
2022/07/21 03:54:03;;;;;;;6.00;2.22;;;;;;;;;;3349069;42;20096;-61
2022/07/21 03:56:29;;;;;;;6.53;2.10;;;;;;;;;;3344781;42;20569;-63
2022/07/21 03:58:55;;;;;;;5.75;2.10;;;;;;;;;;3345774;42;20148;-63
2022/07/21 04:01:21;;;;;;;5.40;2.22;;;;;;;;;;3344106;42;20554;-62
2022/07/21 04:03:47;;;;;;;6.35;2.53;;;;;;;;;;3352757;42;20096;-61
2022/07/21 04:06:13;;;;;;;6.33;2.40;;;;;;;;;;3353711;42;20222;-61
2022/07/21 04:08:39;;;;;;;6.95;2.20;;;;;;;;;;3353052;42;20174;-62
2022/07/21 04:11:05;;;;;;;6.00;2.33;;;;;;;;;;3357181;42;20088;-62
2022/07/21 04:13:31;;;;;;;5.68;2.50;;;;;;;;;;3344171;42;20098;-61
2022/07/21 04:15:57;;;;;;;7.13;2.30;;;;;;;;;;3354118;42;20135;-62
2022/07/21 04:18:23;;;;;;;5.75;2.20;;;;;;;;;;3355227;42;20621;-62
2022/07/21 04:20:49;;;;;;;5.97;2.13;;;;;;;;;;3352969;42;20498;-62
2022/07/21 04:23:15;;;;;;;5.50;2.28;;;;;;;;;;3354159;42;20628;-62
2022/07/21 04:25:41;;;;;;;6.60;2.23;;;;;;;;;;3352446;42;20567;-63
2022/07/21 04:28:07;;;;;;;5.40;2.10;;;;;;;;;;3358468;42;20080;-61
2022/07/21 04:30:33;;;;;;;7.57;2.30;;;;;;;;;;3352313;42;20093;-62
2022/07/21 04:32:59;;;;;;;6.78;2.30;;;;;;;;;;3346320;42;20140;-62
2022/07/21 04:35:25;;;;;;;5.63;2.17;;;;;;;;;;3347189;42;20220;-62
2022/07/21 04:37:51;;;;;;;5.25;2.13;;;;;;;;;;3352238;42;20143;-62
2022/07/21 04:40:17;;;;;;;6.13;2.20;;;;;;;;;;3354031;42;20108;-62
2022/07/21 04:42:43;;;;;;;5.43;2.30;;;;;;;;;;3351118;42;20096;-62
2022/07/21 04:45:10;;;;;;;5.22;2.22;;;;;;;;;;3351902;42;20096;-62
2022/07/21 04:47:56;;;;;;;5.77;2.10;;;;;;;;;;3348879;42;20210;-63
2022/07/21 04:50:24;;;;;;;5.68;2.28;;;;;;;;;;3341647;42;20109;-62
2022/07/21 04:52:51;;;;;;;6.32;2.15;;;;;;;;;;3346404;42;20567;-62
2022/07/21 04:55:17;;;;;;;5.20;2.10;;;;;;;;;;3353326;42;20092;-64
2022/07/21 04:57:44;;;;;;;7.10;2.13;;;;;;;;;;3349173;42;20155;-62
2022/07/21 05:00:12;;;;;;;7.50;2.00;;;;;;;;;;3347074;42;20142;-60
2022/07/21 05:02:38;;;;;;;6.40;2.10;;;;;;;;;;3351644;42;20686;-63
2022/07/21 05:05:05;;;;;;;5.47;2.20;;;;;;;;;;3345954;42;20633;-62
2022/07/21 05:07:31;;;;;;;6.43;2.47;;;;;;;;;;3356211;42;20088;-63
2022/07/21 05:09:58;;;;;;;4.65;1.92;;;;;;;;;;3352658;42;20199;-63
2022/07/21 05:12:25;;;;;;;4.83;2.00;;;;;;;;;;3353649;42;20216;-60
2022/07/21 05:14:51;;;;;;;5.15;2.03;;;;;;;;;;3353416;42;20644;-62
2022/07/21 05:17:17;;;;;;;6.30;2.28;;;;;;;;;;3348954;42;20096;-62
2022/07/21 05:19:45;;;;;;;6.45;2.30;;;;;;;;;;3343892;42;20513;-62
2022/07/21 05:22:11;;;;;;;5.57;2.20;;;;;;;;;;3352077;42;20107;-62
2022/07/21 05:24:37;;;;;;;6.15;2.10;;;;;;;;;;3344749;42;20093;-62
2022/07/21 05:27:03;;;;;;;7.68;2.33;;;;;;;;;;3355996;42;20075;-62
2022/07/21 05:29:29;;;;;;;6.78;2.30;;;;;;;;;;3352680;42;20096;-61
2022/07/21 05:31:55;;;;;;;6.63;2.17;;;;;;;;;;3352439;42;20779;-62
2022/07/21 05:34:21;;;;;;;6.15;2.08;;;;;;;;;;3354858;42;20088;-63
2022/07/21 05:36:47;;;;;;;6.88;2.55;;;;;;;;;;3350423;42;20140;-59
2022/07/21 05:39:13;;;;;;;5.10;2.00;;;;;;;;;;3353988;42;20150;-61
2022/07/21 05:41:39;;;;;;;6.70;2.10;;;;;;;;;;3352046;42;20084;-61
2022/07/21 05:44:05;;;;;;;5.03;2.10;;;;;;;;;;3349185;42;20091;-65
2022/07/21 05:46:32;;;;;;;5.47;2.00;;;;;;;;;;3352851;42;20158;-60
2022/07/21 05:48:58;;;;;;;5.93;1.90;;;;;;;;;;3355036;42;20502;-61
2022/07/21 05:51:23;;;;;;;5.43;1.90;;;;;;;;;;3353545;42;20104;-62
2022/07/21 05:53:50;;;;;;;6.03;1.92;;;;;;;;;;3359169;42;20084;-62
2022/07/21 05:56:15;;;;;;;5.10;2.00;;;;;;;;;;3352257;42;20559;-62
2022/07/21 05:58:41;;;;;;;5.57;2.20;;;;;;;;;;3362432;42;20103;-62
2022/07/21 06:01:08;;;;;;;5.60;1.90;;;;;;;;;;3356365;42;20570;-63
2022/07/21 06:03:41;;;;;;;5.93;1.92;;;;;;;;;;3356532;42;20117;-62
2022/07/21 06:06:07;;;;;;;7.07;2.30;;;;;;;;;;3351074;42;20107;-61
2022/07/21 06:08:33;;;;;;;6.65;2.20;;;;;;;;;;3352736;42;20127;-60
2022/07/21 06:10:59;;;;;;;5.40;2.00;;;;;;;;;;3354795;42;20112;-60
2022/07/21 06:13:25;;;;;;;4.97;2.08;;;;;;;;;;3353272;42;20136;-60
2022/07/21 06:15:51;;;;;;;6.22;2.25;;;;;;;;;;3351186;42;20103;-61
2022/07/21 06:18:17;;;;;;;6.72;2.00;;;;;;;;;;3354021;42;20581;-63
2022/07/21 06:20:43;;;;;;;5.23;1.90;;;;;;;;;;3347431;42;20606;-62
2022/07/21 06:23:09;;;;;;;5.13;2.00;;;;;;;;;;3354315;42;20547;-61
2022/07/21 06:25:35;;;;;;;6.13;1.90;;;;;;;;;;3353087;42;20123;-62
2022/07/21 06:28:01;;;;;;;7.38;2.08;;;;;;;;;;3362003;42;20118;-62
2022/07/21 06:30:27;;;;;;;6.43;2.10;;;;;;;;;;3362310;42;20655;-63
2022/07/21 06:32:53;;;;;;;4.73;1.70;;;;;;;;;;3358768;42;20624;-62
2022/07/21 06:35:20;;;;;;;6.97;2.42;;;;;;;;;;3360122;42;20148;-62
2022/07/21 06:37:46;;;;;;;5.30;2.00;;;;;;;;;;3358616;42;20107;-62
2022/07/21 06:40:13;;;;;;;5.70;1.70;;;;;;;;;;3353516;42;20134;-62
2022/07/21 06:42:39;;;;;;;5.30;1.80;;;;;;;;;;3351425;42;20140;-57
2022/07/21 06:45:05;;;;;;;6.07;1.87;;;;;;;;;;3361019;42;20091;-57
2022/07/21 06:47:31;;;;;;;4.70;1.95;;;;;;;;;;3354674;42;20150;-59
2022/07/21 06:50:02;;;;;;;5.60;1.80;;;;;;;;;;3351694;42;20518;-58
2022/07/21 06:52:29;;;;;;;5.60;2.10;;;;;;;;;;3354151;42;20088;-58
2022/07/21 06:54:55;;;;;;;4.93;1.90;;;;;;;;;;3362303;42;20114;-56
2022/07/21 06:57:21;;;;;;;5.03;1.87;;;;;;;;;;3354932;42;20101;-56
2022/07/21 06:59:48;;;;;;;4.60;1.70;;;;;;;;;;3356818;42;20080;-58
2022/07/21 07:02:14;;;;;;;6.57;1.80;;;;;;;;;;3344215;42;20097;-58
2022/07/21 07:04:40;;;;;;;4.50;1.75;;;;;;;;;;3357335;42;20574;-55
2022/07/21 07:07:06;;;;;;;5.83;1.90;;;;;;;;;;3351690;42;20648;-57
2022/07/21 07:09:32;;;;;;;5.97;1.70;;;;;;;;;;3345443;42;20298;-60
2022/07/21 07:12:03;;;;;;;5.95;1.70;;;;;;;;;;3353808;42;20092;-57
2022/07/21 07:14:33;;;;;;;5.28;1.67;;;;;;;;;;3357681;42;20088;-59
2022/07/21 07:16:59;;;;;;;5.63;1.70;;;;;;;;;;3353593;42;20103;-56
2022/07/21 07:19:25;;;;;;;5.20;1.60;;;;;;;;;;3344093;42;20092;-56
2022/07/21 07:21:51;;;;;;;4.80;1.60;;;;;;;;;;3352324;42;20127;-58
2022/07/21 07:24:17;;;;;;;5.57;1.60;;;;;;;;;;3348700;42;20084;-57
2022/07/21 07:26:43;;;;;;;5.90;1.92;;;;;;;;;;3346069;42;20578;-59
2022/07/21 07:29:09;;;;;;;4.80;1.80;;;;;;;;;;3353201;42;20111;-58
2022/07/21 07:31:35;;;;;;;4.53;1.60;;;;;;;;;;3345371;42;20593;-59
2022/07/21 07:34:02;;;;;;;5.32;1.80;;;;;;;;;;3345397;42;20080;-58
2022/07/21 07:36:28;;;;;;;7.72;1.80;;;;;;;;;;3353090;42;20111;-59
2022/07/21 07:38:54;;;;;;;4.80;1.70;;;;;;;;;;3354844;42;20636;-58
2022/07/21 07:41:20;;;;;;;4.95;1.80;;;;;;;;;;3350358;42;20093;-56
2022/07/21 07:43:47;;;;;;;4.93;1.80;;;;;;;;;;3357004;42;20586;-57
2022/07/21 07:46:14;;;;;;;6.85;2.10;;;;;;;;;;3352447;42;20092;-58
2022/07/21 07:48:41;;;;;;;4.80;1.60;;;;;;;;;;3340731;42;20118;-59
2022/07/21 07:51:11;;;;;;;5.45;1.88;;;;;;;;;;3359312;42;20585;-59
2022/07/21 07:53:37;;;;;;;5.10;1.83;;;;;;;;;;3360117;42;20218;-59
2022/07/21 07:56:03;;;;;;;5.00;1.70;;;;;;;;;;3354566;42;20208;-57
2022/07/21 07:58:29;;;;;;;6.18;2.15;;;;;;;;;;3354616;42;20219;-57
2022/07/21 08:00:55;;;;;;;5.68;1.80;;;;;;;;;;3350518;42;20096;-58
2022/07/21 08:03:23;;;;;;;5.50;1.90;;;;;;;;;;3353405;42;20503;-57
2022/07/21 08:05:49;;;;;;;5.22;1.98;;;;;;;;;;3351888;42;20208;-56
2022/07/21 08:08:15;;;;;;;6.83;2.53;;;;;;;;;;3354048;42;20096;-58
2022/07/21 08:10:41;;;;;;;6.32;2.20;;;;;;;;;;3344889;42;20100;-57
2022/07/21 08:13:09;;;;;;;7.25;2.22;;;;;;;;;;3351765;42;20088;-57
2022/07/21 08:15:35;;;;;;;6.45;2.25;;;;;;;;;;3350542;42;20483;-56
2022/07/21 08:18:02;;;;;;;5.32;2.20;;;;;;;;;;3345862;42;20111;-57
2022/07/21 08:20:28;;;;;;;6.30;2.30;;;;;;;;;;3344528;42;20941;-59
2022/07/21 08:22:54;;;;;;;7.07;2.10;;;;;;;;;;3339947;42;20108;-58
2022/07/21 08:25:20;;;;;;;4.75;2.05;;;;;;;;;;3344406;42;20097;-58
2022/07/21 08:27:46;;;;;;;5.80;2.10;;;;;;;;;;3353838;42;20088;-57
2022/07/21 08:30:12;;;;;;;4.90;2.13;;;;;;;;;;3349310;42;20100;-55
2022/07/21 08:32:38;;;;;;;5.73;2.20;;;;;;;;;;3353996;42;20180;-58
2022/07/21 08:35:08;;;;;;;7.32;2.60;;;;;;;;;;3354302;42;20100;-58
2022/07/21 08:37:37;;;;;;;6.05;2.30;;;;;;;;;;3356458;42;20606;-58
2022/07/21 08:40:07;;;;;;;6.25;2.38;;;;;;;;;;3355889;42;20168;-58
2022/07/21 08:42:34;;;;;;;6.78;2.53;;;;;;;;;;3355361;42;20563;-56
2022/07/21 08:45:00;;;;;;;6.70;2.70;;;;;;;;;;3361529;42;20148;-59
2022/07/21 08:47:26;;;;;;;6.90;2.50;;;;;;;;;;3361174;42;20147;-59
2022/07/21 08:49:52;;;;;;;6.72;2.60;;;;;;;;;;3353603;42;20162;-59
2022/07/21 08:52:18;;;;;;;7.97;2.70;;;;;;;;;;3353203;42;20175;-59
2022/07/21 08:54:44;;;;;;;6.70;2.60;;;;;;;;;;3361516;42;20539;-59
2022/07/21 08:57:10;;;;;;;8.40;2.50;;;;;;;;;;3351388;42;20092;-59
2022/07/21 08:59:36;;;;;;;7.97;2.58;;;;;;;;;;3352931;42;20622;-58
2022/07/21 09:02:03;;;;;;;7.85;2.60;;;;;;;;;;3361215;42;20094;-57
2022/07/21 09:04:31;;;;;;;9.32;2.67;;;;;;;;;;3354108;42;20135;-55
2022/07/21 09:07:00;;;;;;;5.43;2.57;;;;;;;;;;3358101;42;20710;-56
2022/07/21 09:09:27;;;;;;;6.40;2.45;;;;;;;;;;3358538;42;20558;-57
2022/07/21 09:11:53;;;;;;;5.75;2.60;;;;;;;;;;3359832;42;20087;-52
2022/07/21 09:14:21;;;;;;;6.07;2.60;;;;;;;;;;3361364;42;20473;-58
2022/07/21 09:16:57;;;;;;;7.75;2.70;;;;;;;;;;3360403;42;20516;-56
2022/07/21 09:19:23;;;;;;;5.83;2.60;;;;;;;;;;3344549;42;20559;-57
2022/07/21 09:21:51;;;;;;;8.45;2.45;;;;;;;;;;3354446;42;20551;-56
2022/07/21 09:24:25;;;;;;;6.97;2.50;;;;;;;;;;3344761;42;20144;-56
2022/07/21 09:27:07;;;;;;;6.53;2.72;;;;;;;;;;3353074;42;20571;-59
2022/07/21 09:29:45;;;;;;;5.55;2.50;;;;;;;;;;3350156;42;20579;-59
2022/07/21 09:32:25;;;;;;;6.50;2.30;;;;;;;;;;3358395;42;20622;-59
2022/07/21 09:34:54;;;;;;;6.20;2.60;;;;;;;;;;3351117;42;20235;-59
2022/07/21 09:37:20;;;;;;;8.68;2.63;;;;;;;;;;3363012;42;20094;-58
2022/07/21 09:39:53;;;;;;;6.28;2.55;;;;;;;;;;3361375;42;20558;-55
2022/07/21 09:42:27;;;;;;;5.53;2.40;;;;;;;;;;3361863;42;20162;-57
2022/07/21 09:44:55;;;;;;;7.67;2.63;;;;;;;;;;3354085;42;20194;-57
2022/07/21 09:47:23;;;;;;;7.95;2.50;;;;;;;;;;3361595;42;20104;-59
2022/07/21 09:49:49;;;;;;;8.40;2.50;;;;;;;;;;3362031;42;20645;-55
2022/07/21 09:52:26;;;;;;;5.85;2.30;;;;;;;;;;3361985;42;20088;-56
2022/07/21 09:54:52;;;;;;;6.28;2.20;;;;;;;;;;3361647;42;20133;-58
2022/07/21 09:57:19;;;;;;;9.73;2.40;;;;;;;;;;3348270;42;20630;-56
2022/07/21 09:59:45;;;;;;;6.40;2.58;;;;;;;;;;3353740;42;20088;-57
2022/07/21 10:02:16;;;;;;;8.43;2.92;;;;;;;;;;3348256;42;20096;-53
2022/07/21 10:04:44;;;;;;;6.38;2.40;;;;;;;;;;3341285;42;20081;-56
2022/07/21 10:07:09;;;;;;;6.55;2.40;;;;;;;;;;3340929;42;20093;-53
2022/07/21 10:09:35;;;;;;;6.97;2.37;;;;;;;;;;3345494;42;20258;-55
2022/07/21 10:12:01;;;;;;;9.55;2.75;;;;;;;;;;3358145;42;20076;-56
2022/07/21 10:14:27;;;;;;;6.32;2.42;;;;;;;;;;3349463;42;20550;-58
2022/07/21 10:16:53;;;;;;;7.63;2.50;;;;;;;;;;3342344;42;20188;-57
2022/07/21 10:19:23;;;;;;;8.27;2.60;;;;;;;;;;3349476;42;20089;-56
2022/07/21 10:22:07;;;;;;;5.55;2.50;;;;;;;;;;3348051;42;20104;-58
2022/07/21 10:24:33;;;;;;;6.18;2.40;;;;;;;;;;3346085;42;20111;-56
2022/07/21 10:27:10;;;;;;;7.93;2.43;;;;;;;;;;3342019;42;20077;-57
2022/07/21 10:29:53;;;;;;;5.72;2.17;;;;;;;;;;3354131;42;20107;-57
2022/07/21 10:32:21;;;;;;;7.20;2.90;;;;;;;;;;3353779;42;20096;-57
2022/07/21 10:34:48;;;;;;;6.38;2.25;;;;;;;;;;3352971;42;20148;-57
2022/07/21 10:37:39;;;;;;;8.30;2.33;;;;;;;;;;3346481;42;20680;-58
2022/07/21 10:40:26;;;;;;;5.10;2.10;;;;;;;;;;3358464;42;20084;-57
2022/07/21 10:43:01;;;;;;;5.97;2.40;;;;;;;;;;3340412;42;20105;-56
2022/07/21 10:45:36;;;;;;;5.88;1.95;;;;;;;;;;3348931;42;20088;-58
2022/07/21 10:48:04;;;;;;;5.32;2.05;;;;;;;;;;3350749;42;20158;-57
2022/07/21 10:50:33;;;;;;;7.90;2.20;;;;;;;;;;3351209;42;20722;-55
2022/07/21 10:53:12;;;;;;;5.53;2.00;;;;;;;;;;3356736;42;20080;-59
2022/07/21 10:55:39;;;;;;;5.35;2.00;;;;;;;;;;3354879;42;20605;-57
2022/07/21 10:58:13;;;;;;;5.10;2.10;;;;;;;;;;3338802;42;20119;-58
2022/07/21 11:00:55;;;;;;;6.15;1.90;;;;;;;;;;3345084;42;20148;-58
2022/07/21 11:03:29;;;;;;;5.10;2.00;;;;;;;;;;3355405;42;20099;-58
2022/07/21 11:06:15;;;;;;;4.70;2.00;;;;;;;;;;3352560;42;20159;-59
2022/07/21 11:08:48;;;;;;;5.20;2.03;;;;;;;;;;3351736;42;20100;-57
2022/07/21 11:11:27;;;;;;;6.57;2.30;;;;;;;;;;3353333;42;20156;-58
2022/07/21 11:13:59;;;;;;;7.68;2.05;;;;;;;;;;3353298;42;20567;-58
2022/07/21 11:16:48;;;;;;;6.35;2.20;;;;;;;;;;3353741;42;20156;-57
2022/07/21 11:19:31;;;;;;;4.83;1.90;;;;;;;;;;3357092;42;20570;-55
2022/07/21 11:21:59;;;;;;;4.75;1.95;;;;;;;;;;3350379;42;20088;-58
2022/07/21 11:24:25;;;;;;;6.72;2.33;;;;;;;;;;3342209;42;20555;-59
2022/07/21 11:27:00;;;;;;;7.03;2.40;;;;;;;;;;3352113;42;20116;-57
2022/07/21 11:29:27;;;;;;;6.50;2.30;;;;;;;;;;3351093;42;20113;-57
2022/07/21 11:31:53;;;;;;;6.80;2.17;;;;;;;;;;3344657;42;20158;-58
2022/07/21 11:34:19;;;;;;;8.07;2.10;;;;;;;;;;3342977;42;20104;-59
2022/07/21 11:36:45;;;;;;;7.45;2.20;;;;;;;;;;3353430;42;20093;-59
2022/07/21 11:39:13;;;;;;;5.72;2.30;;;;;;;;;;3354194;42;20081;-57
2022/07/21 11:41:40;;;;;;;6.00;2.13;;;;;;;;;;3350244;42;20096;-54
2022/07/21 11:44:07;;;;;;;6.53;2.10;;;;;;;;;;3354354;42;20093;-57
2022/07/21 11:46:52;;;;;;;7.32;2.60;;;;;;;;;;3354941;42;20258;-56
2022/07/21 11:49:18;;;;;;;7.32;2.17;;;;;;;;;;3351391;42;20096;-57
2022/07/21 11:51:51;;;;;;;5.80;2.10;;;;;;;;;;3343925;42;20090;-57
2022/07/21 11:54:31;;;;;;;5.47;2.40;;;;;;;;;;3350651;42;20100;-55
2022/07/21 11:56:58;;;;;;;5.97;2.37;;;;;;;;;;3347202;42;20088;-55
2022/07/21 11:59:24;;;;;;;5.20;2.22;;;;;;;;;;3352568;42;20158;-57
2022/07/21 12:01:54;;;;;;;6.15;2.53;;;;;;;;;;3341839;42;20088;-56
2022/07/21 12:04:36;;;;;;;6.90;2.40;;;;;;;;;;3351027;42;20096;-57
2022/07/21 12:07:04;;;;;;;6.32;2.58;;;;;;;;;;3351542;42;20709;-58
2022/07/21 12:09:30;;;;;;;7.53;2.47;;;;;;;;;;3356195;42;20084;-57
2022/07/21 12:11:56;;;;;;;5.32;2.50;;;;;;;;;;3342725;42;20711;-56
2022/07/21 12:14:38;;;;;;;6.95;2.30;;;;;;;;;;3349890;42;20112;-57
2022/07/21 12:17:04;;;;;;;7.93;2.60;;;;;;;;;;3355663;42;20190;-59
2022/07/21 12:19:31;;;;;;;16.25;2.90;;;;;;;;;;3356549;42;20502;-60
2022/07/21 12:21:59;;;;;;;8.30;2.43;;;;;;;;;;3343208;42;20096;-57
2022/07/21 12:25:03;;;;;;;8.98;2.50;;;;;;;;;;3343481;42;20518;-59
2022/07/21 12:27:29;;;;;;;7.57;2.40;;;;;;;;;;3351594;42;20099;-57
2022/07/21 12:29:55;;;;;;;6.20;2.05;;;;;;;;;;3352033;42;20099;-57
2022/07/21 12:32:40;;;;;;;5.47;2.30;;;;;;;;;;3352761;42;20151;-57
2022/07/21 12:35:37;;;;;;;4.83;2.10;;;;;;;;;;3357032;42;20111;-55
2022/07/21 12:38:04;;;;;;;7.20;2.33;;;;;;;;;;3340072;42;20139;-55
2022/07/21 12:40:31;;;;;;;7.20;2.20;;;;;;;;;;3351105;42;20092;-58
2022/07/21 12:43:08;;;;;;;6.38;2.00;;;;;;;;;;3346328;42;20099;-58
2022/07/21 12:45:50;;;;;;;9.32;2.45;;;;;;;;;;3353328;42;20162;-59
2022/07/21 12:48:18;;;;;;;6.83;2.23;;;;;;;;;;3350674;42;20155;-58
2022/07/21 12:51:19;;;;;;;5.47;2.08;;;;;;;;;;3352521;42;20084;-58
2022/07/21 12:53:52;;;;;;;5.85;2.30;;;;;;;;;;3351077;42;20103;-59
2022/07/21 12:56:23;;;;;;;6.47;2.20;;;;;;;;;;3342325;42;20534;-57
2022/07/21 12:58:49;;;;;;;6.00;2.20;;;;;;;;;;3351676;42;20104;-58
2022/07/21 13:01:17;;;;;;;7.30;2.13;;;;;;;;;;3353732;42;20093;-58
2022/07/21 13:03:43;;;;;;;7.05;2.10;;;;;;;;;;3344301;42;20162;-59
2022/07/21 13:06:09;;;;;;;5.68;2.03;;;;;;;;;;3352050;42;20204;-56
2022/07/21 13:08:36;;;;;;;6.03;2.30;;;;;;;;;;3343590;42;20096;-57
2022/07/21 13:11:02;;;;;;;6.43;2.00;;;;;;;;;;3348144;42;20088;-58
2022/07/21 13:13:28;;;;;;;7.07;2.17;;;;;;;;;;3352573;42;20096;-58
2022/07/21 13:15:54;;;;;;;5.00;1.85;;;;;;;;;;3352941;42;20175;-57
2022/07/21 13:18:20;;;;;;;6.80;2.08;;;;;;;;;;3348522;42;20101;-60
2022/07/21 13:20:48;;;;;;;5.22;2.00;;;;;;;;;;3354684;42;20156;-58
2022/07/21 13:23:14;;;;;;;5.38;2.10;;;;;;;;;;3340335;42;20629;-62
2022/07/21 13:25:40;;;;;;;9.10;2.20;;;;;;;;;;3349761;42;20081;-55
2022/07/21 13:28:07;;;;;;;9.43;1.90;;;;;;;;;;3355090;42;20096;-61
2022/07/21 13:30:33;;;;;;;5.53;1.80;;;;;;;;;;3353451;42;20554;-56
2022/07/21 13:32:59;;;;;;;6.43;2.13;;;;;;;;;;3345947;42;20080;-56
2022/07/21 13:35:25;;;;;;;8.00;2.20;;;;;;;;;;3352564;42;20570;-53
2022/07/21 13:37:51;;;;;;;6.93;2.20;;;;;;;;;;3354735;42;20843;-56
2022/07/21 13:40:17;;;;;;;7.32;2.20;;;;;;;;;;3351005;42;20092;-58
2022/07/21 13:42:43;;;;;;;5.57;2.00;;;;;;;;;;3357179;42;20160;-59
2022/07/21 13:45:13;;;;;;;4.93;2.03;;;;;;;;;;3355639;42;20102;-57
2022/07/21 13:47:39;;;;;;;7.60;2.17;;;;;;;;;;3353572;42;20115;-58
2022/07/21 13:50:05;;;;;;;6.88;1.98;;;;;;;;;;3354385;42;20152;-58
2022/07/21 13:52:32;;;;;;;7.18;2.10;;;;;;;;;;3350519;42;20080;-58
2022/07/21 13:54:59;;;;;;;5.00;1.70;;;;;;;;;;3354685;42;20099;-59
2022/07/21 13:57:25;;;;;;;5.90;2.20;;;;;;;;;;3355854;42;20210;-58
2022/07/21 13:59:51;;;;;;;7.07;2.10;;;;;;;;;;3352818;42;20634;-59
2022/07/21 14:02:17;;;;;;;7.78;1.90;;;;;;;;;;3352333;42;20617;-53
2022/07/21 14:04:43;;;;;;;9.00;2.30;;;;;;;;;;3356245;42;20193;-59
2022/07/21 14:07:13;;;;;;;8.63;2.40;;;;;;;;;;3353793;42;20096;-58
2022/07/21 14:09:40;;;;;;;6.70;2.33;;;;;;;;;;3354899;42;20105;-57
2022/07/21 14:12:06;;;;;;;5.10;2.20;;;;;;;;;;3353196;42;20199;-59
2022/07/21 14:14:32;;;;;;;8.32;2.45;;;;;;;;;;3352546;42;20085;-59
2022/07/21 14:16:58;;;;;;;6.50;2.40;;;;;;;;;;3354336;42;20195;-59
2022/07/21 14:19:24;;;;;;;7.35;2.30;;;;;;;;;;3352374;42;20104;-58
2022/07/21 14:21:50;;;;;;;8.77;2.38;;;;;;;;;;3352336;42;20171;-59
2022/07/21 14:27:01;;;;;;;9.60;2.50;;;;;;;;;;3339097;42;20136;-58
2022/07/21 14:29:27;;;;;;;5.87;2.40;;;;;;;;;;3350277;42;20625;-58
2022/07/21 14:31:53;;;;;;;7.28;2.30;;;;;;;;;;3356583;42;20784;-58
2022/07/21 14:34:19;;;;;;;7.28;2.20;;;;;;;;;;3353643;42;20135;-60
2022/07/21 14:36:47;;;;;;;7.83;2.37;;;;;;;;;;3352976;42;20096;-58
2022/07/21 14:39:14;;;;;;;7.95;2.50;;;;;;;;;;3342466;42;20115;-57
2022/07/21 14:41:40;;;;;;;8.18;2.40;;;;;;;;;;3344216;42;20101;-57
2022/07/21 14:44:06;;;;;;;9.15;2.70;;;;;;;;;;3355189;42;20080;-57
2022/07/21 14:46:32;;;;;;;5.65;2.40;;;;;;;;;;3351591;42;20140;-57
2022/07/21 14:48:58;;;;;;;6.67;2.80;;;;;;;;;;3353088;42;20081;-61
2022/07/21 14:51:24;;;;;;;6.35;2.60;;;;;;;;;;3356940;42;20091;-59
2022/07/21 14:53:49;;;;;;;10.40;2.88;;;;;;;;;;3353246;42;20104;-60